Share

Selawik, AK

RAWS SELAWIK AK US (MSWKA2) Elev 104 ft | 66.61 °N, 159.09 °W | Change Station

Current weather conditions updated 35 minutes ago

Overcast
Overcast
37 °F
Feels Like 34 °F
N
4
Wind Variable Wind from NNW
Gusts 4.0 mph
Sunrise 6:45 AM
Sunset 10:27 PM
Moon Waning Gibbous

Today is forecast to be Warmer than yesterday.

Pressure 29.77 in
Visibility 10.0 miles
Clouds Overcast 6000 ft
Windchill 34 °F
Dew Point 27 °F
Humidity 66%
Rainfall 0.00 in
Snow Depth Not available.
UV 1 out of 16
Pollen Not available.
Air Quality Not available.
Flu Activity Sporadic
METAR PAIK 172101Z AUTO 36005KT 10SM OVC060 02/M07 A2964 RMK AO2 SLP079 T00171067 56013 FZRANO

More Conditions Fewer Conditions

Pressure 29.77 in
Visibility 10.0 miles
Clouds Overcast 6000 ft
Windchill 34 °F
Dew Point 27 °F
Humidity 66%
Rainfall 0.00 in
Snow Depth Not available.
UV 1 out of 16
Pollen Not available.
Air Quality Not available.
Flu Activity Sporadic
METAR PAIK 172101Z AUTO 36005KT 10SM OVC060 02/M07 A2964 RMK AO2 SLP079 T00171067 56013 FZRANO

More Conditions Fewer Conditions

10-Day Forecast

Almanac

Astronomy

Apr. 17, 2014 Rise Set
Actual Time 6:45 AM AKDT 10:27 PM AKDT
Civil Twilight 5:41 AM AKDT 11:33 PM AKDT
Nautical Twilight 3:48 AM AKDT 1:33 AM AKDT
Astronomical Twilight Sun does not rise Sun does not rise
Moon 1:09 AM AKDT 7:33 AM AKDT
Length of Visible Light 17h 52m
Length of Day
15h 42m
Tomorrow will be 7m 30s longer.
Waning Gibbous, 92% of the Moon is Illuminated
Today
Waning Gibbous
Apr 22
Last Quarter
Apr 29
New
May 6
First Quarter
May 14
Full

Today's Extremes

State Highs State Lows

Community

  • Morning Light
    Morning Light
  • New Day
    New Day
  • Lake Michigan Sunrise
    Lake Michigan Sunrise
  • sunset from izmir, narlıdere
    sunset from izmir, narlıdere
  • oregon cherry
    oregon cherry

WunderPhotos

Upload Photos

1,702,134 photos uploaded!

Nearby

Snow Depth

Station Depth Elevation
Pargon Creek 4 in 300 ft
Rocky Point 6 in 500 ft
Gobblers Knob 8 in 2030 ft
Coldfoot 27 in 1040 ft
Atigun Pass 37 in 4800 ft

Coastal Water Temperatures

Place Temperature
No Stations Reporting

Earthquake Activity

City Distance Mag. Time & Date
No recent earthquake activity has been reported nearby.
Minimum magnitude displayed is 2.5.

Nearby Weather Stations

Station Location Temp. Windchill Dew Point Humidity Wind Precip. Elev Updated Type
RAWS SELAWIK AK, Selawik, AK 37 °F 34 °F 27 °F 66% NNW  at  4 mph 0.00 in / hr 104 ft 12:49 PM AKDT MADIS
RAWS TAG MTN AK, Selawik, AK 29 °F 29 °F 21 °F 73% North  at  0 mph 0.00 in / hr 2017 ft 12:54 PM AKDT MADIS

Show More Stations Show Fewer Stations

What do you think?

We're not finished. Please let us know what you like, what you don't like, and what you are still missing.